Time;durP1;ratioP1;P1;durP2;ratioP2;P2;SDS_P1;SDS_P2;PMS_P1;PMS_P2;Temp;Humidity;BMP_temperature;BMP_pressure;BME280_temperature;BME280_humidity;BME280_pressure;Samples;Min_cycle;Max_cycle;Signal;HPM_P1;HPM_P2
2022/12/14 00:01:11;;;;;;;43.65;22.73;;;-3.90;98.00;;;;;;5040166;28;20044;-64
2022/12/14 00:03:37;;;;;;;38.38;21.10;;;-3.90;98.00;;;;;;5041393;28;20029;-63
2022/12/14 00:06:18;;;;;;;36.78;21.85;;;-4.00;98.00;;;;;;5048321;28;20421;-64
2022/12/14 00:08:46;;;;;;;39.22;22.33;;;-4.00;98.00;;;;;;5048358;28;20552;-64
2022/12/14 00:11:15;;;;;;;37.25;21.58;;;-3.90;98.00;;;;;;5048305;28;20033;-63
2022/12/14 00:13:44;;;;;;;34.60;21.42;;;-3.80;98.00;;;;;;5049553;28;20421;-64
2022/12/14 00:16:16;;;;;;;34.58;20.17;;;-3.70;98.00;;;;;;5047947;28;20094;-63
2022/12/14 00:18:42;;;;;;;41.80;23.85;;;-3.70;98.00;;;;;;5047701;28;20086;-63
2022/12/14 00:21:10;;;;;;;44.53;24.23;;;-3.60;98.00;;;;;;5050145;28;20036;-63
2022/12/14 00:23:37;;;;;;;32.85;19.77;;;-3.60;98.00;;;;;;5052398;28;20041;-64
2022/12/14 00:26:30;;;;;;;44.90;22.42;;;-3.60;98.00;;;;;;5050199;28;20127;-64
2022/12/14 00:28:58;;;;;;;58.78;30.13;;;-3.60;98.00;;;;;;5038933;28;20319;-64
2022/12/14 00:31:24;;;;;;;42.65;23.13;;;-3.70;98.00;;;;;;5050987;28;20098;-65
2022/12/14 00:33:50;;;;;;;51.58;27.52;;;-3.70;98.00;;;;;;5048996;28;20061;-63
2022/12/14 00:36:16;;;;;;;46.83;26.17;;;-3.70;98.00;;;;;;5050747;28;20130;-64
2022/12/14 00:38:42;;;;;;;46.35;26.85;;;-3.90;98.00;;;;;;5048069;28;20350;-64
2022/12/14 00:41:12;;;;;;;56.53;28.88;;;-3.90;98.00;;;;;;5048629;28;20091;-64
2022/12/14 00:43:37;;;;;;;36.42;21.98;;;-4.00;98.00;;;;;;5049522;28;20040;-64
2022/12/14 00:46:03;;;;;;;43.70;25.33;;;-3.90;98.00;;;;;;5049755;28;20036;-64
2022/12/14 00:48:29;;;;;;;40.00;22.50;;;-3.90;98.00;;;;;;5048422;28;20025;-63
2022/12/14 00:50:55;;;;;;;41.55;22.80;;;-4.00;98.00;;;;;;5052782;28;20072;-64
2022/12/14 00:53:22;;;;;;;46.25;24.65;;;-4.00;98.00;;;;;;5055281;28;20422;-64
2022/12/14 00:55:48;;;;;;;39.67;24.35;;;-4.00;98.00;;;;;;5053380;28;20117;-63
2022/12/14 00:58:16;;;;;;;42.33;23.75;;;-3.90;98.00;;;;;;5053193;28;20039;-64
2022/12/14 01:00:43;;;;;;;40.85;22.70;;;-3.90;98.00;;;;;;5050750;28;20037;-63
2022/12/14 01:03:10;;;;;;;43.17;23.85;;;-3.80;98.00;;;;;;5035038;28;20644;-64
2022/12/14 01:05:37;;;;;;;38.08;21.35;;;-3.70;98.00;;;;;;5046939;28;20110;-63
2022/12/14 01:08:04;;;;;;;41.63;24.45;;;-3.60;98.00;;;;;;5044989;28;20025;-63
2022/12/14 01:10:29;;;;;;;39.85;22.52;;;-3.50;98.00;;;;;;5056802;28;20110;-63
2022/12/14 01:12:55;;;;;;;41.05;23.75;;;-3.50;98.00;;;;;;5053187;28;20060;-64
2022/12/14 01:15:21;;;;;;;39.92;23.83;;;-3.40;98.00;;;;;;5056708;28;20044;-64
2022/12/14 01:17:47;;;;;;;43.40;25.67;;;-3.30;98.00;;;;;;5055840;28;20025;-64
2022/12/14 01:20:15;;;;;;;41.58;23.50;;;-3.30;98.00;;;;;;5054729;28;20031;-63
2022/12/14 01:22:43;;;;;;;39.75;23.05;;;-3.20;98.00;;;;;;5055853;28;20041;-64
2022/12/14 01:25:12;;;;;;;36.80;21.80;;;-3.20;98.00;;;;;;5057488;28;20033;-63
2022/12/14 01:27:37;;;;;;;37.47;21.42;;;-3.10;98.00;;;;;;5056768;28;20040;-64
2022/12/14 01:30:06;;;;;;;38.45;21.90;;;-3.00;98.00;;;;;;5054436;28;20025;-64
2022/12/14 01:32:33;;;;;;;35.67;21.90;;;-3.00;98.00;;;;;;5055575;28;20029;-64
2022/12/14 01:34:59;;;;;;;40.78;23.42;;;-2.90;98.00;;;;;;5053381;28;20030;-64
2022/12/14 01:37:24;;;;;;;38.38;23.40;;;-2.90;98.00;;;;;;5054164;28;20082;-64
2022/12/14 01:39:50;;;;;;;38.30;21.95;;;-3.00;98.00;;;;;;5055355;28;20095;-64
2022/12/14 01:42:16;;;;;;;41.40;23.58;;;-3.00;98.00;;;;;;5055936;28;20033;-64
2022/12/14 01:44:41;;;;;;;35.78;22.02;;;-2.90;98.00;;;;;;5054598;28;20123;-64
2022/12/14 01:47:16;;;;;;;40.67;23.88;;;-2.90;98.00;;;;;;5046090;28;20032;-64
2022/12/14 01:49:51;;;;;;;40.00;24.30;;;-2.90;98.00;;;;;;5054652;28;20028;-64
2022/12/14 01:52:26;;;;;;;36.53;21.80;;;-2.90;98.00;;;;;;5055190;28;20106;-64
2022/12/14 01:55:01;;;;;;;38.03;22.45;;;-2.90;98.00;;;;;;5055205;28;20484;-64
2022/12/14 01:57:33;;;;;;;36.53;22.63;;;-2.90;98.00;;;;;;5049110;28;20048;-64
2022/12/14 01:59:59;;;;;;;41.20;24.17;;;-2.90;98.00;;;;;;5051410;28;20025;-65
2022/12/14 02:02:27;;;;;;;36.67;22.35;;;-2.80;98.00;;;;;;5054316;28;20013;-64
2022/12/14 02:04:56;;;;;;;39.72;24.50;;;-2.80;98.00;;;;;;5055561;28;20082;-64
2022/12/14 02:07:25;;;;;;;37.15;22.80;;;-2.80;98.00;;;;;;5051972;28;20052;-64
2022/12/14 02:09:52;;;;;;;38.22;23.20;;;-2.80;98.00;;;;;;5050904;28;20028;-64
2022/12/14 02:12:26;;;;;;;38.20;23.33;;;-2.70;98.00;;;;;;5051930;28;20017;-64
2022/12/14 02:14:52;;;;;;;37.40;22.30;;;-2.70;98.00;;;;;;5047208;28;20028;-64
2022/12/14 02:17:19;;;;;;;72.32;31.95;;;-2.70;98.00;;;;;;5054760;28;20029;-63
2022/12/14 02:19:45;;;;;;;79.35;31.48;;;-2.70;98.00;;;;;;5055057;28;20025;-63
2022/12/14 02:22:29;;;;;;;93.85;33.67;;;-2.80;98.00;;;;;;5054715;28;20041;-64
2022/12/14 02:24:55;;;;;;;;;;;-2.80;98.00;;;;;;5050242;28;20040;-66
2022/12/14 02:27:49;;;;;;;37.58;22.77;;;-2.80;98.00;;;;;;5027944;28;20020;-65
2022/12/14 02:30:19;;;;;;;47.60;25.35;;;-2.80;98.00;;;;;;5049692;28;20287;-65
2022/12/14 02:33:02;;;;;;;41.60;24.27;;;-2.70;98.00;;;;;;5052845;28;20418;-66
2022/12/14 02:35:50;;;;;;;36.92;21.83;;;-2.70;98.00;;;;;;5058467;28;20050;-64
2022/12/14 02:38:36;;;;;;;47.65;25.83;;;-2.70;98.00;;;;;;5054676;28;20025;-65
2022/12/14 02:41:11;;;;;;;39.92;22.75;;;-2.60;98.00;;;;;;5054935;28;20040;-64
2022/12/14 02:44:04;;;;;;;46.33;25.95;;;-2.60;98.00;;;;;;5052802;28;20036;-64
2022/12/14 02:46:52;;;;;;;42.78;24.70;;;-2.60;98.00;;;;;;5055338;28;20043;-65
2022/12/14 02:49:48;;;;;;;38.67;23.33;;;-2.60;98.00;;;;;;5054362;28;20021;-64
2022/12/14 02:52:27;;;;;;;39.53;23.02;;;-2.40;98.00;;;;;;5052477;28;20041;-64
2022/12/14 02:55:00;;;;;;;39.67;23.30;;;-2.40;98.00;;;;;;5054610;28;20029;-65
2022/12/14 02:57:42;;;;;;;41.75;24.98;;;-2.30;98.00;;;;;;5054182;28;20053;-65
2022/12/14 03:00:12;;;;;;;40.55;24.35;;;-2.30;98.00;;;;;;5055976;28;20103;-64
2022/12/14 03:02:40;;;;;;;39.85;23.77;;;-2.30;97.80;;;;;;5054240;28;20436;-65
2022/12/14 03:05:09;;;;;;;45.08;25.13;;;-2.30;98.00;;;;;;5053032;28;20132;-65
2022/12/14 03:07:57;;;;;;;35.25;22.45;;;-2.30;98.00;;;;;;5053064;28;20025;-65
2022/12/14 03:11:03;;;;;;;37.22;21.70;;;-2.30;98.00;;;;;;5053572;28;20024;-64
2022/12/14 03:13:40;;;;;;;39.03;23.42;;;-2.30;98.00;;;;;;5053114;28;20317;-65
2022/12/14 03:16:23;;;;;;;47.13;26.42;;;-2.30;98.00;;;;;;5053476;28;20030;-64
2022/12/14 03:18:57;;;;;;;41.15;25.98;;;-2.20;98.00;;;;;;5051705;28;20025;-64
2022/12/14 03:21:27;;;;;;;43.15;27.25;;;-2.20;98.00;;;;;;5041099;28;20707;-65
2022/12/14 03:23:54;;;;;;;44.33;26.88;;;-2.20;98.00;;;;;;5015607;28;20849;-64
2022/12/14 03:26:27;;;;;;;43.33;26.58;;;-2.30;98.00;;;;;;5034187;28;20494;-64
2022/12/14 03:29:05;;;;;;;40.67;26.07;;;-2.40;98.00;;;;;;5053637;28;20032;-64
2022/12/14 03:31:35;;;;;;;41.15;25.33;;;-2.40;98.00;;;;;;5050100;28;20044;-65
2022/12/14 03:34:04;;;;;;;40.58;25.42;;;-2.30;98.00;;;;;;5053359;28;20112;-64
2022/12/14 03:36:39;;;;;;;42.53;26.23;;;-2.30;98.00;;;;;;5048323;28;20032;-64
2022/12/14 03:39:09;;;;;;;41.92;24.55;;;-2.30;98.00;;;;;;5042571;28;20029;-64
2022/12/14 03:41:57;;;;;;;40.10;24.90;;;-2.30;98.00;;;;;;5047385;28;20108;-64
2022/12/14 03:44:39;;;;;;;40.95;25.60;;;-2.30;98.00;;;;;;5051691;28;20108;-65
2022/12/14 03:47:14;;;;;;;39.72;23.83;;;-2.30;98.00;;;;;;5048052;28;20299;-64
2022/12/14 03:50:00;;;;;;;39.90;25.02;;;-2.30;98.00;;;;;;5048988;28;20017;-64
2022/12/14 03:53:05;;;;;;;39.22;24.77;;;-2.20;98.00;;;;;;5051029;28;20483;-64
2022/12/14 03:56:06;;;;;;;36.85;23.17;;;-2.20;98.00;;;;;;5051676;28;20045;-63
2022/12/14 03:58:47;;;;;;;38.13;23.42;;;-2.10;98.00;;;;;;5053655;28;20029;-65
2022/12/14 04:01:15;;;;;;;38.17;23.67;;;-2.10;98.00;;;;;;5052309;28;20152;-65
2022/12/14 04:04:40;;;;;;;39.65;24.63;;;-2.10;98.00;;;;;;5052562;28;20025;-64
2022/12/14 04:07:31;;;;;;;46.13;26.38;;;-2.10;98.00;;;;;;5012494;28;20299;-64
2022/12/14 04:10:02;;;;;;;39.97;25.70;;;-2.10;98.00;;;;;;5052756;28;20028;-65
2022/12/14 04:21:16;;;;;;;44.50;26.05;;;-2.10;98.00;;;;;;5052217;28;20071;-64
2022/12/14 04:26:45;;;;;;;43.50;25.83;;;-2.10;98.00;;;;;;5046867;28;20027;-64
2022/12/14 04:32:08;;;;;;;50.63;31.13;;;-2.10;98.00;;;;;;5053166;28;20043;-65
2022/12/14 04:34:35;;;;;;;56.78;32.63;;;-2.20;98.00;;;;;;5036250;28;20021;-65
2022/12/14 04:37:07;;;;;;;61.25;34.60;;;-2.40;98.00;;;;;;5050596;28;20329;-65
2022/12/14 04:39:42;;;;;;;64.68;36.90;;;-2.40;98.00;;;;;;5047071;28;20032;-65
2022/12/14 04:42:10;;;;;;;53.08;32.92;;;-2.50;98.00;;;;;;5034388;28;20030;-64
2022/12/14 04:44:41;;;;;;;56.67;31.88;;;-2.50;98.00;;;;;;5042071;28;20021;-64
2022/12/14 04:47:12;;;;;;;57.28;32.55;;;-2.50;98.00;;;;;;5046311;28;20035;-64
2022/12/14 04:49:59;;;;;;;52.67;32.92;;;-2.50;98.00;;;;;;5049027;28;20021;-64
2022/12/14 04:53:03;;;;;;;56.60;33.03;;;-2.50;98.00;;;;;;5040938;28;20334;-64
2022/12/14 04:55:47;;;;;;;53.15;32.10;;;-2.50;98.00;;;;;;4947534;28;20035;-65
2022/12/14 04:58:27;;;;;;;55.85;31.45;;;-2.60;98.00;;;;;;5043812;28;20099;-64
2022/12/14 05:01:18;;;;;;;50.53;31.50;;;-2.50;98.00;;;;;;5049732;28;20366;-64
2022/12/14 05:04:02;;;;;;;57.20;33.38;;;-2.60;98.00;;;;;;5054460;28;20036;-64
2022/12/14 05:06:33;;;;;;;;;;;-2.50;98.00;;;;;;5046246;28;20064;-64
2022/12/14 05:09:11;;;;;;;47.53;28.67;;;-2.40;98.00;;;;;;5051569;28;19905;-63
2022/12/14 05:12:00;;;;;;;50.10;30.30;;;-2.20;98.00;;;;;;5050173;28;20104;-64
2022/12/14 05:14:53;;;;;;;49.85;29.25;;;-2.00;98.00;;;;;;5046400;28;20018;-63
2022/12/14 05:17:19;;;;;;;46.05;27.95;;;-1.90;98.00;;;;;;5030466;28;20422;-67
2022/12/14 05:19:49;;;;;;;49.30;30.52;;;-1.70;97.60;;;;;;5049743;28;20044;-65
2022/12/14 05:22:16;;;;;;;52.38;29.83;;;-1.60;98.00;;;;;;5048759;28;20033;-65
2022/12/14 05:24:41;;;;;;;46.40;27.75;;;-1.50;98.00;;;;;;5047683;28;20025;-64
2022/12/14 05:27:07;;;;;;;46.88;28.02;;;-1.50;98.00;;;;;;5052450;28;20087;-65
2022/12/14 05:29:33;;;;;;;49.58;29.80;;;-1.40;98.00;;;;;;5050732;28;20437;-66
2022/12/14 05:31:59;;;;;;;61.47;34.95;;;-1.40;98.00;;;;;;5051190;28;20100;-65
2022/12/14 05:34:25;;;;;;;53.17;30.77;;;-1.40;98.00;;;;;;5054081;28;20025;-65
2022/12/14 05:36:51;;;;;;;59.40;36.13;;;-1.60;98.00;;;;;;5054460;28;20092;-64
2022/12/14 05:39:19;;;;;;;55.35;33.38;;;-1.70;98.00;;;;;;5056084;28;20107;-65
2022/12/14 05:41:44;;;;;;;68.53;37.85;;;-1.80;98.00;;;;;;5056968;28;20021;-65
2022/12/14 05:44:10;;;;;;;59.90;35.83;;;-2.00;98.00;;;;;;5055965;28;20028;-65
2022/12/14 05:46:35;;;;;;;59.28;35.35;;;-2.10;98.00;;;;;;5048689;28;20104;-65
2022/12/14 05:49:01;;;;;;;51.05;31.98;;;-2.10;98.00;;;;;;5058353;28;20367;-65
2022/12/14 05:51:27;;;;;;;54.40;32.88;;;-2.10;98.00;;;;;;5056038;28;20119;-65
2022/12/14 05:53:52;;;;;;;56.00;32.55;;;-2.20;98.00;;;;;;5049980;28;20028;-65
2022/12/14 05:56:18;;;;;;;50.97;32.55;;;-2.20;98.00;;;;;;5035739;28;20426;-64
2022/12/14 05:58:48;;;;;;;51.05;31.52;;;-2.20;98.00;;;;;;5054102;28;20025;-65
2022/12/14 06:01:14;;;;;;;57.92;34.85;;;-2.10;98.00;;;;;;5036355;28;20033;-65
2022/12/14 06:03:39;;;;;;;59.08;36.67;;;-2.20;98.00;;;;;;5056591;28;20434;-65
2022/12/14 06:06:08;;;;;;;55.25;35.33;;;-2.20;98.00;;;;;;5053709;28;20052;-65
2022/12/14 06:08:37;;;;;;;57.20;33.28;;;-2.10;98.00;;;;;;5033050;28;20406;-65
2022/12/14 06:11:17;;;;;;;52.80;32.67;;;-2.10;98.00;;;;;;5056078;28;20066;-65
2022/12/14 06:13:44;;;;;;;51.92;31.38;;;-2.10;98.00;;;;;;5042535;28;20481;-64
2022/12/14 06:16:18;;;;;;;54.13;33.67;;;-2.10;98.00;;;;;;5054915;28;20326;-65
2022/12/14 06:18:46;;;;;;;63.92;38.42;;;-2.00;98.00;;;;;;5050427;28;20330;-64
2022/12/14 06:21:14;;;;;;;76.70;41.15;;;-2.00;98.00;;;;;;5054359;28;20025;-66
2022/12/14 06:23:40;;;;;;;68.35;39.53;;;-2.10;98.00;;;;;;5055404;28;20122;-65
2022/12/14 06:26:07;;;;;;;56.92;35.65;;;-2.10;98.00;;;;;;5052266;28;20029;-65
2022/12/14 06:28:34;;;;;;;59.25;34.30;;;-2.10;98.00;;;;;;5050240;28;20217;-65
2022/12/14 06:30:59;;;;;;;53.92;33.53;;;-2.10;98.00;;;;;;5056126;28;20376;-65
2022/12/14 06:33:25;;;;;;;64.82;37.47;;;-2.10;98.00;;;;;;5053817;28;20025;-65
2022/12/14 06:35:50;;;;;;;65.15;39.35;;;-2.10;98.00;;;;;;5054868;28;20071;-65
2022/12/14 06:38:16;;;;;;;78.60;45.50;;;-2.10;98.00;;;;;;5051801;28;20033;-65
2022/12/14 06:40:42;;;;;;;73.13;41.50;;;-2.10;98.00;;;;;;5052695;28;20413;-64
2022/12/14 06:43:08;;;;;;;64.97;40.05;;;-2.20;98.00;;;;;;5083678;22;20056;-65
2022/12/14 06:45:34;;;;;;;66.85;38.67;;;-2.20;98.00;;;;;;5088134;28;20023;-65
2022/12/14 06:47:59;;;;;;;74.88;41.50;;;-2.30;98.00;;;;;;5077102;28;20029;-64
2022/12/14 06:50:27;;;;;;;75.32;42.10;;;-2.40;98.00;;;;;;5094985;28;20032;-65
2022/12/14 06:52:54;;;;;;;64.97;36.67;;;-2.50;98.00;;;;;;5085691;28;20021;-64
2022/12/14 06:55:24;;;;;;;77.65;41.58;;;-2.50;97.60;;;;;;5080721;28;20036;-64
2022/12/14 06:57:50;;;;;;;71.82;41.42;;;-2.40;97.40;;;;;;5074969;28;20087;-64
2022/12/14 07:00:17;;;;;;;75.43;42.50;;;-2.40;97.80;;;;;;5066266;28;20082;-64
2022/12/14 07:02:43;;;;;;;73.50;40.05;;;-2.40;97.60;;;;;;5074866;28;20427;-64
2022/12/14 07:05:08;;;;;;;63.08;37.35;;;-2.50;97.60;;;;;;5072382;28;20089;-64
2022/12/14 07:07:34;;;;;;;59.20;35.72;;;-2.50;97.30;;;;;;5058907;28;20322;-64
2022/12/14 07:10:01;;;;;;;66.78;39.30;;;-2.50;97.00;;;;;;5073873;28;20024;-64
2022/12/14 07:12:27;;;;;;;69.70;39.75;;;-2.40;97.50;;;;;;5067620;28;20423;-64
2022/12/14 07:14:53;;;;;;;74.75;43.67;;;-2.30;97.70;;;;;;5075398;28;20029;-64
2022/12/14 07:17:20;;;;;;;96.20;53.90;;;-2.20;97.20;;;;;;5070126;28;20025;-64
2022/12/14 07:19:45;;;;;;;83.90;45.15;;;-2.10;97.80;;;;;;5063851;28;20329;-64
2022/12/14 07:22:12;;;;;;;78.50;43.40;;;-2.10;97.00;;;;;;5070746;28;20017;-64
2022/12/14 07:24:38;;;;;;;60.58;39.55;;;-2.00;97.70;;;;;;5074408;28;20366;-64
2022/12/14 07:27:03;;;;;;;72.15;42.13;;;-2.20;96.50;;;;;;5073671;28;20040;-64
2022/12/14 07:29:29;;;;;;;70.88;41.05;;;-2.10;96.50;;;;;;5070974;28;20086;-64
2022/12/14 07:31:55;;;;;;;72.75;41.88;;;-2.10;96.40;;;;;;5076346;28;20395;-65
2022/12/14 07:34:20;;;;;;;70.72;39.75;;;-2.10;96.30;;;;;;5082692;28;20021;-64
2022/12/14 07:36:49;;;;;;;78.07;42.83;;;-2.20;96.60;;;;;;5072091;28;20042;-63
2022/12/14 07:39:15;;;;;;;85.03;47.72;;;-2.30;96.10;;;;;;5084968;28;20085;-63
2022/12/14 07:41:42;;;;;;;70.78;41.22;;;-2.30;95.80;;;;;;5076063;28;20320;-64
2022/12/14 07:44:09;;;;;;;78.95;43.72;;;-2.30;94.20;;;;;;5064509;28;20029;-64
2022/12/14 07:46:34;;;;;;;78.82;44.35;;;-2.40;94.70;;;;;;5074426;28;20070;-64
2022/12/14 07:49:00;;;;;;;81.22;46.03;;;-2.40;94.50;;;;;;5096226;28;20051;-64
2022/12/14 07:51:32;;;;;;;77.18;44.30;;;-2.30;94.10;;;;;;5094287;28;20024;-64
2022/12/14 07:54:00;;;;;;;85.30;48.40;;;-2.30;94.10;;;;;;5092585;28;20103;-64
2022/12/14 07:56:31;;;;;;;89.40;49.45;;;-2.20;93.30;;;;;;5074674;28;20115;-64
2022/12/14 07:58:58;;;;;;;86.20;51.58;;;-2.10;93.20;;;;;;5073988;28;20073;-65
2022/12/14 08:01:27;;;;;;;100.07;58.95;;;-2.00;94.50;;;;;;5074014;28;20207;-64
2022/12/14 08:03:55;;;;;;;75.72;46.13;;;-2.00;94.00;;;;;;5084697;28;20332;-64
2022/12/14 08:06:23;;;;;;;83.00;46.88;;;-2.00;92.90;;;;;;5056794;28;20329;-64
2022/12/14 08:08:52;;;;;;;79.25;45.13;;;-2.00;92.70;;;;;;5076956;28;20020;-64
2022/12/14 08:11:21;;;;;;;85.40;47.20;;;-1.80;91.60;;;;;;5075285;28;20020;-64
2022/12/14 08:13:57;;;;;;;80.53;44.15;;;-1.70;91.90;;;;;;5061596;28;20028;-64
2022/12/14 08:16:24;;;;;;;70.75;40.65;;;-1.60;92.40;;;;;;5075437;28;20021;-64
2022/12/14 08:18:51;;;;;;;71.93;44.97;;;-1.50;93.60;;;;;;5084317;28;20105;-64
2022/12/14 08:21:19;;;;;;;70.45;43.13;;;-1.30;93.70;;;;;;5093080;28;20028;-65
2022/12/14 08:23:45;;;;;;;68.20;40.67;;;-1.30;94.60;;;;;;5086398;28;20028;-64
2022/12/14 08:26:11;;;;;;;69.18;41.47;;;-1.20;94.70;;;;;;5072421;28;20040;-65
2022/12/14 08:28:36;;;;;;;62.92;39.22;;;-1.20;94.60;;;;;;5074479;28;20466;-64
2022/12/14 08:31:05;;;;;;;65.53;39.72;;;-1.20;95.20;;;;;;5070744;28;20120;-65
2022/12/14 08:33:33;;;;;;;68.95;39.95;;;-1.20;94.80;;;;;;5067273;28;20108;-64
2022/12/14 08:36:05;;;;;;;74.78;43.92;;;-1.20;95.30;;;;;;5074708;28;20036;-64
2022/12/14 08:38:31;;;;;;;87.95;49.00;;;-1.20;94.30;;;;;;5075513;28;20024;-65
2022/12/14 08:41:04;;;;;;;89.85;49.45;;;-1.10;95.10;;;;;;5074735;28;20043;-65
2022/12/14 08:43:29;;;;;;;84.70;48.77;;;-1.20;94.40;;;;;;5074364;28;20055;-65
2022/12/14 08:46:01;;;;;;;89.00;48.60;;;-1.10;94.20;;;;;;5075041;28;20286;-64
2022/12/14 08:48:27;;;;;;;92.40;47.95;;;-1.10;93.70;;;;;;5072734;28;20075;-66
2022/12/14 08:50:52;;;;;;;80.53;43.67;;;-1.20;94.10;;;;;;5074210;28;20056;-64
2022/12/14 08:53:18;;;;;;;77.28;45.05;;;-1.30;91.40;;;;;;5075342;28;20055;-64
2022/12/14 08:55:44;;;;;;;76.53;43.72;;;-1.10;90.30;;;;;;5072018;28;20025;-64
2022/12/14 08:58:10;;;;;;;76.63;43.25;;;-0.90;90.70;;;;;;5073413;28;20033;-64
2022/12/14 09:00:38;;;;;;;74.78;45.30;;;-0.80;91.00;;;;;;5073124;28;20027;-64
2022/12/14 09:03:05;;;;;;;74.90;45.88;;;-0.70;90.80;;;;;;5075362;28;20021;-65
2022/12/14 09:05:30;;;;;;;77.28;45.15;;;-0.60;92.00;;;;;;5073982;28;20035;-65
2022/12/14 09:07:56;;;;;;;85.13;48.80;;;-0.60;92.90;;;;;;5075470;28;20020;-64
2022/12/14 09:10:22;;;;;;;66.40;40.40;;;-0.70;94.10;;;;;;5075712;28;20043;-65
2022/12/14 09:12:47;;;;;;;79.78;44.60;;;-0.70;93.30;;;;;;5076343;28;20086;-64
2022/12/14 09:15:13;;;;;;;73.95;43.30;;;-0.60;92.70;;;;;;5074432;28;20041;-65
2022/12/14 09:17:38;;;;;;;74.68;44.83;;;-0.50;92.60;;;;;;5075507;28;20031;-65
2022/12/14 09:20:09;;;;;;;80.25;47.92;;;-0.40;93.00;;;;;;5072006;28;20056;-64
2022/12/14 09:22:35;;;;;;;65.07;40.28;;;-0.40;95.00;;;;;;5078427;28;20025;-64
2022/12/14 09:25:00;;;;;;;69.72;41.28;;;-0.50;96.30;;;;;;5060509;28;20074;-64
2022/12/14 09:27:28;;;;;;;69.22;42.42;;;-0.70;95.10;;;;;;5078174;28;20033;-63
2022/12/14 09:29:54;;;;;;;92.15;50.70;;;-0.70;95.50;;;;;;5075963;28;20021;-63
2022/12/14 09:32:19;;;;;;;78.63;45.85;;;-0.90;94.90;;;;;;5061019;28;20097;-63
2022/12/14 09:34:45;;;;;;;82.82;45.90;;;-0.90;93.80;;;;;;5077644;28;20029;-65
2022/12/14 09:37:11;;;;;;;64.75;38.70;;;-0.90;93.60;;;;;;5072112;28;20313;-66
2022/12/14 09:39:37;;;;;;;76.15;43.85;;;-0.90;93.60;;;;;;5078403;28;20131;-65
2022/12/14 09:42:17;;;;;;;70.70;41.13;;;-0.70;92.40;;;;;;5078442;28;20502;-65
2022/12/14 09:44:51;;;;;;;66.15;39.38;;;-0.60;93.30;;;;;;5077103;28;20039;-64
2022/12/14 09:47:28;;;;;;;75.13;44.55;;;-0.60;94.00;;;;;;5077393;28;20368;-65
2022/12/14 09:49:59;;;;;;;66.78;41.95;;;-0.60;95.50;;;;;;5078438;28;20400;-65
2022/12/14 09:52:51;;;;;;;70.50;41.50;;;-0.60;94.60;;;;;;5078191;28;20428;-65
2022/12/14 09:55:44;;;;;;;70.95;42.20;;;-0.60;95.10;;;;;;5078008;28;20027;-65
2022/12/14 09:58:16;;;;;;;63.47;39.60;;;-0.50;93.70;;;;;;5069516;28;20028;-64
2022/12/14 10:00:55;;;;;;;62.13;38.40;;;-0.40;92.80;;;;;;5075674;28;20017;-64
2022/12/14 10:03:45;;;;;;;60.85;38.40;;;-0.30;94.70;;;;;;5078026;28;20025;-64
2022/12/14 10:06:38;;;;;;;63.83;39.05;;;-0.20;95.60;;;;;;5077927;28;20171;-64
2022/12/14 10:09:26;;;;;;;54.55;34.92;;;-0.20;97.10;;;;;;5060189;28;20317;-64
2022/12/14 10:12:10;;;;;;;55.85;35.75;;;-0.10;96.10;;;;;;5082643;28;20052;-65
2022/12/14 10:14:47;;;;;;;66.60;40.75;;;-0.10;96.20;;;;;;5060035;28;20057;-64
2022/12/14 10:17:34;;;;;;;65.47;38.60;;;0.00;96.30;;;;;;5074438;28;20033;-65
2022/12/14 10:20:10;;;;;;;57.05;36.85;;;0.10;96.30;;;;;;5077658;28;20027;-65
2022/12/14 10:22:42;;;;;;;62.40;40.20;;;0.10;95.30;;;;;;5079357;28;20090;-65
2022/12/14 10:25:45;;;;;;;54.65;35.58;;;0.20;95.50;;;;;;5075907;28;20028;-65
2022/12/14 10:28:16;;;;;;;63.72;39.33;;;0.30;95.40;;;;;;5011046;28;20426;-65
2022/12/14 10:30:42;;;;;;;52.03;34.45;;;0.40;97.20;;;;;;5068336;28;20032;-64
2022/12/14 10:33:29;;;;;;;52.75;34.47;;;0.40;96.80;;;;;;5084418;28;20315;-64
2022/12/14 10:36:10;;;;;;;57.35;34.20;;;0.50;96.70;;;;;;5075658;28;20024;-64
2022/12/14 10:38:42;;;;;;;50.22;31.45;;;0.40;98.00;;;;;;5061917;28;20074;-64
2022/12/14 10:41:24;;;;;;;59.63;34.90;;;0.30;96.20;;;;;;5094029;28;20111;-64
2022/12/14 10:44:00;;;;;;;48.92;31.50;;;0.30;95.80;;;;;;5055947;28;20064;-64
2022/12/14 10:46:59;;;;;;;54.60;34.38;;;0.40;94.80;;;;;;5065855;28;20036;-64
2022/12/14 10:49:35;;;;;;;64.57;38.88;;;0.50;96.10;;;;;;5075224;28;20273;-63
2022/12/14 10:52:16;;;;;;;58.72;34.90;;;0.60;95.50;;;;;;5072613;28;20348;-64
2022/12/14 10:55:14;;;;;;;71.22;41.47;;;0.60;96.60;;;;;;5076913;28;20298;-62
2022/12/14 10:57:40;;;;;;;80.22;47.42;;;0.50;95.60;;;;;;5075026;28;20029;-63
2022/12/14 11:00:12;;;;;;;65.85;40.70;;;0.50;95.30;;;;;;5075214;28;20047;-63
2022/12/14 11:02:48;;;;;;;54.05;33.58;;;0.50;93.80;;;;;;5074929;28;20024;-63
2022/12/14 11:05:25;;;;;;;60.00;36.53;;;0.50;93.40;;;;;;5076060;28;20112;-63
2022/12/14 11:07:51;;;;;;;57.75;34.70;;;0.30;92.90;;;;;;5073125;28;20324;-63
2022/12/14 11:10:20;;;;;;;66.78;38.60;;;0.30;92.20;;;;;;5060504;28;20040;-64
2022/12/14 11:13:15;;;;;;;65.72;37.83;;;0.30;92.00;;;;;;5088053;28;20405;-63
2022/12/14 11:15:46;;;;;;;66.97;41.55;;;0.40;90.90;;;;;;5088360;28;20033;-64
2022/12/14 11:18:14;;;;;;;56.08;33.92;;;0.40;91.10;;;;;;5075556;28;20025;-64
2022/12/14 11:20:49;;;;;;;49.15;32.10;;;0.70;91.20;;;;;;5074707;28;20028;-64
2022/12/14 11:23:23;;;;;;;51.65;33.65;;;0.90;91.50;;;;;;5073118;28;20028;-64
2022/12/14 11:25:50;;;;;;;;;;;1.00;92.70;;;;;;5075337;28;20036;-64
2022/12/14 11:28:57;;;;;;;54.35;33.22;;;1.10;93.40;;;;;;5075508;28;20157;-65
2022/12/14 11:31:29;;;;;;;54.20;34.97;;;1.00;94.40;;;;;;5068127;28;20020;-65
2022/12/14 11:33:56;;;;;;;61.70;39.80;;;1.10;93.10;;;;;;5075893;28;20024;-65
2022/12/14 11:36:36;;;;;;;57.15;36.55;;;1.00;93.70;;;;;;5088220;28;20443;-65
2022/12/14 11:39:17;;;;;;;63.78;39.72;;;1.10;92.80;;;;;;5088532;28;20031;-66
2022/12/14 11:41:46;;;;;;;83.78;46.22;;;1.30;95.60;;;;;;5085217;28;20190;-65
2022/12/14 11:44:15;;;;;;;78.45;47.03;;;1.30;96.10;;;;;;5069098;28;20053;-66
2022/12/14 11:46:57;;;;;;;66.90;43.25;;;1.20;94.80;;;;;;5070311;28;20028;-65
2022/12/14 11:49:37;;;;;;;50.60;33.53;;;1.20;92.60;;;;;;5075109;28;20123;-66
2022/12/14 11:52:13;;;;;;;49.50;32.63;;;1.60;93.50;;;;;;5080501;28;20035;-66
2022/12/14 11:54:42;;;;;;;52.30;34.75;;;1.90;96.60;;;;;;5073468;28;20556;-66
2022/12/14 11:57:13;;;;;;;50.08;33.70;;;1.90;98.00;;;;;;5074410;28;20032;-66
2022/12/14 11:59:55;;;;;;;54.13;36.38;;;2.00;98.00;;;;;;5074091;28;20025;-66
2022/12/14 12:02:34;;;;;;;44.67;30.65;;;2.10;98.00;;;;;;5070991;28;20477;-66
2022/12/14 12:05:11;;;;;;;51.85;33.70;;;2.00;98.00;;;;;;5081986;28;20024;-67
2022/12/14 12:07:42;;;;;;;42.92;29.98;;;2.00;98.00;;;;;;5074016;28;20183;-67
2022/12/14 12:10:21;;;;;;;54.92;35.00;;;1.70;98.00;;;;;;5073297;28;20028;-66
2022/12/14 12:12:57;;;;;;;50.15;33.40;;;1.60;98.00;;;;;;5070013;28;20119;-67
2022/12/14 12:15:31;;;;;;;62.35;38.25;;;1.50;98.00;;;;;;5071574;28;20289;-67
2022/12/14 12:18:14;;;;;;;138.55;68.80;;;1.40;96.30;;;;;;5085931;28;20166;-67
2022/12/14 12:20:57;;;;;;;131.38;66.47;;;1.30;95.20;;;;;;5071800;28;20043;-66
2022/12/14 12:23:36;;;;;;;72.82;44.08;;;1.40;93.70;;;;;;5066115;28;20029;-66
2022/12/14 12:26:16;;;;;;;66.00;40.67;;;1.50;93.40;;;;;;5072023;28;20324;-66
2022/12/14 12:28:47;;;;;;;70.30;43.38;;;1.40;93.30;;;;;;5078562;28;20052;-67
2022/12/14 12:31:21;;;;;;;70.32;43.00;;;1.40;92.80;;;;;;5079024;28;20028;-68
2022/12/14 12:34:01;;;;;;;69.82;44.17;;;1.30;93.20;;;;;;5074913;28;20099;-67
2022/12/14 12:36:27;;;;;;;77.55;44.47;;;1.20;91.90;;;;;;5074690;28;20020;-67
2022/12/14 12:38:58;;;;;;;68.22;40.80;;;1.10;91.10;;;;;;5056022;28;20056;-67
2022/12/14 12:41:30;;;;;;;56.05;36.47;;;1.00;89.70;;;;;;5074197;28;20067;-67
2022/12/14 12:44:19;;;;;;;65.85;41.20;;;1.10;88.10;;;;;;5074055;28;20463;-67
2022/12/14 12:47:07;;;;;;;65.60;38.15;;;1.10;87.50;;;;;;5078663;28;20111;-67
2022/12/14 12:49:33;;;;;;;60.60;37.08;;;1.10;87.60;;;;;;5064346;28;20443;-67
2022/12/14 12:52:03;;;;;;;50.55;34.17;;;1.10;87.40;;;;;;5070577;28;20021;-66
2022/12/14 12:54:39;;;;;;;57.15;38.65;;;1.10;87.10;;;;;;5087776;28;20035;-66
2022/12/14 12:57:10;;;;;;;70.75;39.90;;;1.10;86.40;;;;;;5081600;28;20028;-66
2022/12/14 12:59:45;;;;;;;55.40;35.90;;;1.20;88.40;;;;;;5080846;28;20058;-66
2022/12/14 13:02:27;;;;;;;58.30;36.92;;;1.10;87.70;;;;;;5077638;28;20033;-66
2022/12/14 13:04:54;;;;;;;56.60;36.08;;;1.10;86.90;;;;;;5075890;28;20024;-67
2022/12/14 13:07:22;;;;;;;65.32;40.63;;;1.10;86.30;;;;;;5075826;28;20305;-66
2022/12/14 13:10:11;;;;;;;69.80;43.97;;;1.10;87.40;;;;;;5066791;28;20441;-67
2022/12/14 13:12:43;;;;;;;61.90;41.10;;;1.10;86.40;;;;;;5052977;28;20429;-66